Terminal Aerodrome Forecast
Issued by NWS

Home | Current Version | Previous Version | Graphics & Text | Print | Product List | Glossary On
Versions: 1 2 3 4 5 6 7 8 9 10 11 12 13 14 15
371
FTUS43 KBIS 191725
TAFJMS
TAF
KJMS 191725Z 1918/2018 17015KT P6SM FEW090 FEW250
     FM200200 25008KT P6SM FEW090 SCT250
     FM200600 32007KT P6SM FEW100 SCT250=

USA.gov is the U.S. government's official web portal to all federal, state and local government web resources and services.